Time;durP1;ratioP1;P1;durP2;ratioP2;P2;SDS_P1;SDS_P2;PMS_P1;PMS_P2;Temp;Humidity;BMP_temperature;BMP_pressure;BME280_temperature;BME280_humidity;BME280_pressure;Samples;Min_cycle;Max_cycle;Signal;HPM_P1;HPM_P2
2022/04/19 00:00:38;;;;;;;5.80;5.40;;;11.40;64.70;;;;;;5008328;28;20790;-74
2022/04/19 00:03:07;;;;;;;5.27;4.97;;;11.40;67.10;;;;;;5009077;28;20442;-69
2022/04/19 00:05:34;;;;;;;5.43;5.00;;;11.40;67.40;;;;;;5013511;28;20468;-68
2022/04/19 00:08:00;;;;;;;5.40;4.97;;;11.40;67.20;;;;;;5011138;28;20433;-75
2022/04/19 00:10:28;;;;;;;5.93;5.30;;;11.40;67.20;;;;;;5011727;28;20528;-69
2022/04/19 00:12:55;;;;;;;5.97;5.47;;;11.40;67.60;;;;;;5006683;28;20438;-69
2022/04/19 00:15:22;;;;;;;6.50;5.90;;;11.30;68.00;;;;;;5010159;28;20473;-68
2022/04/19 00:17:48;;;;;;;5.37;4.87;;;11.30;67.90;;;;;;5012144;28;20539;-69
2022/04/19 00:20:14;;;;;;;4.90;4.60;;;11.20;67.50;;;;;;5010155;28;20441;-69
2022/04/19 00:22:40;;;;;;;5.30;4.80;;;11.20;68.50;;;;;;5010718;28;20442;-68
2022/04/19 00:25:07;;;;;;;5.67;5.27;;;11.20;68.80;;;;;;5010439;28;20492;-69
2022/04/19 00:27:33;;;;;;;5.70;5.20;;;11.20;68.80;;;;;;5012829;28;20184;-68
2022/04/19 00:29:59;;;;;;;5.30;4.80;;;11.10;68.40;;;;;;5008706;28;20460;-75
2022/04/19 00:32:25;;;;;;;5.00;4.60;;;11.10;68.90;;;;;;5011140;28;20507;-69
2022/04/19 00:34:51;;;;;;;4.70;4.37;;;11.00;68.20;;;;;;5012161;28;20438;-68
2022/04/19 00:37:18;;;;;;;5.23;4.73;;;11.00;68.80;;;;;;5009989;28;20365;-69
2022/04/19 00:39:45;;;;;;;6.17;4.20;;;11.00;69.00;;;;;;5010782;28;20444;-68
2022/04/19 00:42:10;;;;;;;4.80;4.37;;;11.00;68.30;;;;;;5009548;28;20570;-71
2022/04/19 00:44:39;;;;;;;5.50;4.93;;;11.00;69.10;;;;;;5003861;28;20461;-68
2022/04/19 00:47:09;;;;;;;6.90;4.90;;;11.00;68.20;;;;;;5010063;28;20601;-69
2022/04/19 00:49:42;;;;;;;5.90;5.10;;;11.00;67.10;;;;;;5010148;28;20598;-69
2022/04/19 00:52:08;;;;;;;5.80;5.30;;;11.00;67.60;;;;;;5010135;28;20440;-68
2022/04/19 00:54:34;;;;;;;5.00;4.70;;;11.00;68.10;;;;;;5010680;28;20435;-69
2022/04/19 00:57:01;;;;;;;5.33;4.93;;;11.00;68.60;;;;;;5010492;28;20434;-75
2022/04/19 00:59:26;;;;;;;5.70;5.20;;;11.00;69.40;;;;;;5011098;28;20460;-68
2022/04/19 01:01:52;;;;;;;5.67;5.17;;;11.00;69.90;;;;;;5009835;28;20426;-69
2022/04/19 01:04:18;;;;;;;5.67;5.17;;;11.00;70.40;;;;;;5009526;28;20989;-69
2022/04/19 01:06:44;;;;;;;5.60;5.13;;;11.00;70.60;;;;;;5011941;28;20501;-68
2022/04/19 01:09:11;;;;;;;5.50;5.10;;;10.90;70.60;;;;;;5009564;28;20433;-69
2022/04/19 01:14:22;;;;;;;6.10;5.00;;;10.90;70.80;;;;;;5007475;28;21056;-70
2022/04/19 01:16:48;;;;;;;5.00;4.60;;;10.80;70.80;;;;;;5010380;28;20446;-68
2022/04/19 01:19:15;;;;;;;6.17;5.53;;;10.70;71.00;;;;;;5010401;28;20452;-69
2022/04/19 01:21:51;;;;;;;5.13;4.73;;;10.20;70.70;;;;;;5010412;28;20449;-68
2022/04/19 01:24:18;;;;;;;5.57;4.90;;;10.60;72.00;;;;;;5007953;28;20952;-69
2022/04/19 01:26:45;;;;;;;5.80;5.30;;;10.50;72.70;;;;;;5009322;28;20961;-72
2022/04/19 01:29:11;;;;;;;5.63;5.13;;;10.40;72.50;;;;;;5009550;28;20443;-69
2022/04/19 01:31:40;;;;;;;5.70;4.90;;;10.60;72.40;;;;;;5008369;28;20530;-69
2022/04/19 01:34:07;;;;;;;5.43;4.93;;;10.40;73.10;;;;;;5005485;28;20746;-69
2022/04/19 01:36:37;;;;;;;5.70;5.20;;;10.30;72.80;;;;;;5008783;28;20764;-68
2022/04/19 01:39:07;;;;;;;4.60;4.20;;;10.30;73.50;;;;;;5009599;28;20434;-74
2022/04/19 01:41:34;;;;;;;5.20;4.80;;;10.30;73.60;;;;;;5009535;28;20534;-69
2022/04/19 01:44:00;;;;;;;5.27;4.83;;;10.20;73.20;;;;;;5001401;28;20840;-69
2022/04/19 01:46:27;;;;;;;5.30;4.80;;;10.20;73.40;;;;;;5009333;28;20483;-69
2022/04/19 01:48:55;;;;;;;5.70;5.20;;;10.20;73.80;;;;;;5010009;28;20471;-68
2022/04/19 01:51:21;;;;;;;5.50;5.10;;;10.20;74.30;;;;;;5008878;28;20542;-71
2022/04/19 01:53:51;;;;;;;5.60;5.20;;;9.60;75.50;;;;;;5009782;28;20445;-69
2022/04/19 01:56:17;;;;;;;5.80;5.30;;;10.10;75.60;;;;;;5009310;28;20470;-69
2022/04/19 01:58:44;;;;;;;5.40;5.00;;;10.10;76.00;;;;;;5011452;28;20438;-68
2022/04/19 02:01:10;;;;;;;5.57;5.07;;;10.10;75.30;;;;;;5007722;28;20739;-69
2022/04/19 02:03:35;;;;;;;5.20;4.80;;;10.00;74.60;;;;;;4996783;28;20438;-68
2022/04/19 02:06:05;;;;;;;5.27;4.87;;;10.00;75.10;;;;;;5013718;28;20484;-69
2022/04/19 02:08:31;;;;;;;5.30;4.90;;;10.00;75.60;;;;;;5014185;28;20225;-69
2022/04/19 02:10:57;;;;;;;5.50;4.60;;;9.90;76.80;;;;;;5014591;28;20524;-69
2022/04/19 02:13:22;;;;;;;5.60;5.20;;;9.90;76.50;;;;;;5012334;28;20179;-68
2022/04/19 02:15:48;;;;;;;5.97;5.43;;;9.80;77.10;;;;;;5012223;28;20194;-68
2022/04/19 02:18:14;;;;;;;5.30;4.90;;;9.80;77.80;;;;;;5012307;28;20226;-69
2022/04/19 02:20:39;;;;;;;5.20;4.80;;;9.80;78.60;;;;;;5014932;28;20199;-69
2022/04/19 02:23:05;;;;;;;5.60;5.00;;;9.80;79.10;;;;;;5028284;28;20194;-74
2022/04/19 02:25:31;;;;;;;5.40;4.90;;;9.80;79.90;;;;;;5012366;28;20206;-68
2022/04/19 02:27:57;;;;;;;5.57;5.17;;;9.80;79.90;;;;;;5013323;28;20183;-71
2022/04/19 02:30:23;;;;;;;5.50;5.10;;;9.80;78.80;;;;;;5002234;28;20953;-69
2022/04/19 02:32:50;;;;;;;4.73;4.43;;;9.70;79.10;;;;;;5013829;28;20179;-72
2022/04/19 02:35:21;;;;;;;5.40;5.00;;;9.70;80.00;;;;;;5013107;28;20182;-71
2022/04/19 02:37:54;;;;;;;5.13;4.73;;;9.70;80.70;;;;;;5013577;28;20429;-69
2022/04/19 02:40:22;;;;;;;5.47;5.07;;;9.30;80.20;;;;;;5012145;28;20453;-69
2022/04/19 02:42:49;;;;;;;5.40;4.97;;;9.70;80.00;;;;;;5013197;28;20561;-68
2022/04/19 02:45:16;;;;;;;5.77;5.27;;;9.70;79.50;;;;;;5013083;28;20432;-68
2022/04/19 02:47:42;;;;;;;6.00;5.40;;;9.60;79.30;;;;;;5013638;28;20809;-69
2022/04/19 02:50:08;;;;;;;6.00;5.50;;;9.60;79.70;;;;;;5012132;28;20447;-74
2022/04/19 02:52:34;;;;;;;5.70;5.20;;;9.70;80.80;;;;;;5011814;28;20476;-69
2022/04/19 02:55:00;;;;;;;6.03;5.47;;;9.60;81.10;;;;;;5013710;28;20449;-69
2022/04/19 02:57:26;;;;;;;7.73;5.20;;;9.60;81.40;;;;;;5012634;28;20190;-69
2022/04/19 02:59:53;;;;;;;5.30;4.90;;;9.50;81.00;;;;;;5012210;28;20189;-74
2022/04/19 03:02:20;;;;;;;5.27;4.77;;;9.40;82.00;;;;;;5012212;28;20438;-68
2022/04/19 03:04:45;;;;;;;5.80;5.23;;;9.30;81.80;;;;;;5014155;28;20770;-68
2022/04/19 03:07:14;;;;;;;5.30;4.90;;;9.30;82.40;;;;;;5011896;28;20473;-69
2022/04/19 03:09:41;;;;;;;5.27;4.87;;;9.30;82.10;;;;;;5013130;28;20537;-68
2022/04/19 03:12:10;;;;;;;6.53;4.90;;;9.40;82.30;;;;;;5008141;28;20896;-75
2022/04/19 03:14:36;;;;;;;6.30;5.20;;;9.30;81.90;;;;;;5010971;28;20438;-68
2022/04/19 03:17:02;;;;;;;5.17;4.77;;;9.30;81.50;;;;;;5011271;28;20476;-68
2022/04/19 03:19:27;;;;;;;5.67;5.20;;;9.30;81.80;;;;;;5011199;28;20582;-68
2022/04/19 03:21:53;;;;;;;6.93;5.83;;;9.30;82.70;;;;;;5013516;28;20437;-68
2022/04/19 03:29:47;;;;;;;6.10;5.60;;;9.40;83.30;;;;;;5011754;28;20963;-68
2022/04/19 03:32:15;;;;;;;6.57;5.97;;;9.50;83.10;;;;;;5009567;28;20430;-69
2022/04/19 03:34:42;;;;;;;6.60;6.10;;;9.40;83.10;;;;;;5011927;28;20190;-68
2022/04/19 03:37:08;;;;;;;7.00;6.30;;;9.20;83.00;;;;;;5011880;28;20446;-74
2022/04/19 03:39:33;;;;;;;7.30;6.70;;;9.20;83.80;;;;;;5011485;28;20438;-69
2022/04/19 03:41:59;;;;;;;7.27;6.67;;;9.10;84.10;;;;;;5012408;28;20234;-69
2022/04/19 03:44:30;;;;;;;6.87;6.30;;;9.00;84.60;;;;;;5011104;28;20183;-69
2022/04/19 03:47:09;;;;;;;7.73;7.10;;;9.10;84.80;;;;;;5023052;28;20282;-69
2022/04/19 03:49:39;;;;;;;7.50;6.90;;;9.10;85.40;;;;;;5010514;28;20560;-69
2022/04/19 03:52:06;;;;;;;7.03;6.17;;;9.20;85.60;;;;;;5010635;28;20513;-68
2022/04/19 03:54:34;;;;;;;8.27;7.63;;;9.50;85.90;;;;;;5011514;28;20529;-68
2022/04/19 03:57:08;;;;;;;7.63;7.03;;;9.20;85.80;;;;;;5010451;28;20453;-69
2022/04/19 03:59:38;;;;;;;7.80;7.20;;;9.20;85.90;;;;;;5009356;28;20921;-69
2022/04/19 04:02:04;;;;;;;8.60;8.00;;;9.20;85.20;;;;;;5010646;28;20457;-69
2022/04/19 04:04:31;;;;;;;6.03;5.43;;;9.20;84.70;;;;;;5012628;28;20444;-69
2022/04/19 04:07:03;;;;;;;6.40;5.90;;;9.10;85.10;;;;;;5011263;28;20805;-69
2022/04/19 04:09:32;;;;;;;7.37;6.67;;;9.10;85.60;;;;;;5010730;28;20448;-69
2022/04/19 04:12:18;;;;;;;7.00;6.40;;;9.10;86.20;;;;;;5005826;28;20973;-69
2022/04/19 04:14:44;;;;;;;7.40;6.70;;;9.10;86.80;;;;;;5010123;28;20473;-69
2022/04/19 04:17:10;;;;;;;7.70;6.90;;;8.90;87.80;;;;;;5006310;28;20449;-72
2022/04/19 04:19:36;;;;;;;9.27;8.57;;;9.00;87.80;;;;;;5011229;28;20218;-69
2022/04/19 04:22:02;;;;;;;6.63;6.13;;;8.80;86.90;;;;;;5011406;28;20476;-68
2022/04/19 04:24:27;;;;;;;8.00;7.30;;;9.00;86.70;;;;;;5011144;28;20639;-69
2022/04/19 04:26:53;;;;;;;8.47;7.63;;;8.80;86.40;;;;;;5010989;28;20621;-70
2022/04/19 04:29:19;;;;;;;7.73;6.90;;;8.90;87.10;;;;;;5009356;28;20187;-70
2022/04/19 04:31:44;;;;;;;7.70;7.10;;;8.90;87.30;;;;;;5008931;28;20549;-69
2022/04/19 04:34:10;;;;;;;7.77;6.97;;;8.90;87.50;;;;;;5010640;28;20179;-73
2022/04/19 04:36:36;;;;;;;7.57;6.87;;;8.80;88.40;;;;;;5010110;28;20187;-69
2022/04/19 04:39:03;;;;;;;8.30;7.60;;;8.80;88.40;;;;;;5010853;28;20684;-70
2022/04/19 04:41:29;;;;;;;7.83;7.23;;;8.40;88.40;;;;;;5009337;28;20309;-69
2022/04/19 04:43:55;;;;;;;8.50;7.80;;;8.80;89.20;;;;;;5011688;28;20525;-69
2022/04/19 04:51:49;;;;;;;8.97;7.60;;;8.70;89.90;;;;;;5008927;28;20429;-69
2022/04/19 04:54:15;;;;;;;8.00;7.33;;;8.70;90.00;;;;;;5011155;28;20569;-72
2022/04/19 04:56:40;;;;;;;7.27;6.67;;;8.70;90.10;;;;;;5009303;28;22060;-69
2022/04/19 04:59:06;;;;;;;7.60;6.80;;;8.70;90.50;;;;;;5008418;28;20183;-69
2022/04/19 05:01:32;;;;;;;7.57;6.87;;;8.70;90.70;;;;;;5006348;28;20183;-69
2022/04/19 05:03:57;;;;;;;7.93;6.13;;;8.30;90.60;;;;;;5009325;28;20218;-71
2022/04/19 05:06:23;;;;;;;8.20;7.40;;;8.40;90.60;;;;;;5008546;28;20211;-68
2022/04/19 05:08:49;;;;;;;8.80;8.17;;;8.80;90.80;;;;;;5009688;28;20233;-68
2022/04/19 05:11:15;;;;;;;8.93;7.57;;;8.50;90.60;;;;;;5010716;28;20693;-72
2022/04/19 05:13:41;;;;;;;8.50;7.80;;;8.80;91.10;;;;;;5010252;28;20197;-68
2022/04/19 05:16:08;;;;;;;9.07;8.07;;;8.90;90.90;;;;;;5009213;28;20956;-70
2022/04/19 05:18:34;;;;;;;8.13;7.30;;;8.60;90.90;;;;;;5010199;28;20768;-68
2022/04/19 05:20:59;;;;;;;9.63;8.73;;;9.00;91.40;;;;;;5010575;28;20438;-68
2022/04/19 05:23:25;;;;;;;10.70;9.80;;;9.00;91.50;;;;;;5007291;28;20461;-74
2022/04/19 05:25:51;;;;;;;8.20;7.40;;;9.00;91.90;;;;;;5010860;28;20253;-73
2022/04/19 05:28:17;;;;;;;10.07;9.27;;;9.50;99.90;;;;;;5005041;28;20570;-76
2022/04/19 05:30:42;;;;;;;8.53;7.83;;;10.10;99.90;;;;;;5010225;28;20203;-76
2022/04/19 05:33:10;;;;;;;7.30;6.60;;;10.60;99.90;;;;;;5009870;28;20633;-74
2022/04/19 05:35:35;;;;;;;9.47;8.80;;;11.00;99.90;;;;;;5008906;28;20177;-74
2022/04/19 05:38:01;;;;;;;7.10;6.50;;;11.50;98.90;;;;;;5010367;28;20512;-75
2022/04/19 05:40:27;;;;;;;9.50;6.50;;;11.90;97.20;;;;;;5007252;28;20234;-72
2022/04/19 05:42:52;;;;;;;6.37;5.83;;;12.30;93.90;;;;;;5010653;28;20232;-74
2022/04/19 05:45:18;;;;;;;6.50;5.90;;;12.30;86.60;;;;;;5008976;28;20555;-75
2022/04/19 05:47:44;;;;;;;6.97;6.30;;;12.10;81.00;;;;;;5008917;28;20190;-71
2022/04/19 05:50:10;;;;;;;7.13;6.53;;;12.00;78.40;;;;;;5005097;28;20183;-71
2022/04/19 05:52:37;;;;;;;7.83;7.13;;;11.70;78.40;;;;;;5005563;28;20751;-71
2022/04/19 05:55:03;;;;;;;6.87;6.33;;;11.60;78.90;;;;;;5006787;28;20607;-73
2022/04/19 05:57:29;;;;;;;11.17;7.10;;;11.40;79.20;;;;;;5005560;28;20962;-70
2022/04/19 05:59:55;;;;;;;7.83;6.80;;;11.20;79.70;;;;;;5003535;28;20468;-70
2022/04/19 06:05:05;;;;;;;10.80;7.70;;;10.80;81.50;;;;;;5007108;28;20696;-70
2022/04/19 06:07:31;;;;;;;9.10;7.10;;;10.70;83.60;;;;;;5008803;28;20491;-69
2022/04/19 06:09:58;;;;;;;8.07;7.27;;;10.60;84.50;;;;;;5009963;28;20435;-69
2022/04/19 06:12:23;;;;;;;10.07;7.03;;;10.50;85.50;;;;;;5007600;28;20458;-69
2022/04/19 06:14:49;;;;;;;8.47;7.60;;;10.40;86.30;;;;;;5011299;28;20511;-69
2022/04/19 06:17:21;;;;;;;13.70;9.20;;;10.40;86.90;;;;;;5008379;28;20256;-69
2022/04/19 06:19:47;;;;;;;10.63;7.53;;;10.40;87.10;;;;;;5010290;28;20642;-67
2022/04/19 06:22:13;;;;;;;10.57;7.57;;;10.40;87.10;;;;;;5009451;28;20455;-69
2022/04/19 06:24:38;;;;;;;9.63;8.80;;;10.30;87.40;;;;;;5009983;28;20915;-69
2022/04/19 06:27:05;;;;;;;12.60;8.63;;;10.20;88.00;;;;;;5010496;28;20465;-70
2022/04/19 06:29:30;;;;;;;9.83;9.03;;;10.20;87.50;;;;;;5010133;28;20441;-68
2022/04/19 06:31:56;;;;;;;11.33;9.10;;;10.20;88.00;;;;;;5009311;28;20428;-68
2022/04/19 06:34:22;;;;;;;9.03;7.53;;;10.30;88.30;;;;;;5005528;28;20186;-74
2022/04/19 06:36:48;;;;;;;9.37;8.50;;;10.50;88.90;;;;;;5009964;28;20508;-68
2022/04/19 06:39:13;;;;;;;8.67;7.87;;;10.30;87.70;;;;;;5012601;28;20180;-70
2022/04/19 06:41:41;;;;;;;10.60;9.73;;;10.30;88.20;;;;;;5004441;28;20254;-69
2022/04/19 06:44:08;;;;;;;13.10;8.13;;;10.40;89.80;;;;;;5006568;28;20652;-72
2022/04/19 06:46:36;;;;;;;9.00;8.07;;;10.50;88.60;;;;;;5004974;28;20816;-72
2022/04/19 06:49:03;;;;;;;9.30;8.50;;;10.60;89.80;;;;;;5010777;28;20817;-71
2022/04/19 06:51:30;;;;;;;11.70;10.63;;;10.50;89.60;;;;;;5008880;28;20984;-71
2022/04/19 06:53:56;;;;;;;11.33;10.33;;;10.60;90.10;;;;;;5013154;28;20426;-72
2022/04/19 06:56:22;;;;;;;10.47;9.37;;;10.60;90.70;;;;;;5012547;28;20441;-73
2022/04/19 06:58:49;;;;;;;11.03;10.03;;;10.70;91.30;;;;;;5013252;28;20200;-71
2022/04/19 07:01:15;;;;;;;11.40;10.30;;;10.80;91.40;;;;;;5014186;28;20174;-72
2022/04/19 07:03:41;;;;;;;10.17;9.17;;;10.90;90.20;;;;;;5011737;28;20425;-72
2022/04/19 07:06:06;;;;;;;9.50;8.53;;;10.90;90.10;;;;;;5012633;28;20474;-71
2022/04/19 07:08:32;;;;;;;12.30;9.67;;;10.90;89.70;;;;;;5012747;28;20269;-71
2022/04/19 07:11:00;;;;;;;11.80;10.10;;;10.60;88.00;;;;;;5013620;28;20244;-73
2022/04/19 07:13:27;;;;;;;10.57;9.47;;;10.80;86.80;;;;;;5011980;28;20524;-71
2022/04/19 07:15:53;;;;;;;11.93;10.50;;;11.00;87.00;;;;;;5012822;28;20937;-72
2022/04/19 07:18:23;;;;;;;11.03;10.03;;;11.00;86.70;;;;;;5014068;28;20437;-76
2022/04/19 07:29:06;;;;;;;13.67;10.73;;;11.30;84.30;;;;;;5000201;28;20429;-75
2022/04/19 07:31:33;;;;;;;13.07;10.40;;;11.40;84.90;;;;;;4995857;28;20428;-72
2022/04/19 07:33:59;;;;;;;12.20;11.03;;;11.50;85.70;;;;;;5009263;28;20765;-75
2022/04/19 07:36:25;;;;;;;11.00;10.00;;;11.60;83.00;;;;;;5011529;28;20488;-73
2022/04/19 07:38:51;;;;;;;10.77;9.57;;;11.60;84.00;;;;;;5012455;28;20909;-71
2022/04/19 07:41:20;;;;;;;10.13;9.17;;;12.00;83.70;;;;;;5008373;28;20669;-71
2022/04/19 07:43:47;;;;;;;10.80;9.80;;;12.00;86.10;;;;;;5011081;28;20434;-72
2022/04/19 07:46:16;;;;;;;10.20;9.30;;;12.20;82.60;;;;;;5007863;28;21961;-73
2022/04/19 07:48:47;;;;;;;9.50;8.60;;;12.40;80.90;;;;;;5008555;28;20493;-72
2022/04/19 07:51:14;;;;;;;10.60;9.50;;;12.60;84.30;;;;;;5009491;28;20775;-73
2022/04/19 07:53:40;;;;;;;14.50;10.10;;;12.80;84.10;;;;;;5005536;28;20521;-71
2022/04/19 07:56:06;;;;;;;10.43;9.43;;;12.90;82.50;;;;;;5011476;28;20442;-72
2022/04/19 07:58:32;;;;;;;10.13;9.20;;;13.20;80.70;;;;;;5007976;28;20445;-74
2022/04/19 08:00:57;;;;;;;10.40;9.07;;;13.20;80.50;;;;;;5009125;28;20445;-71
2022/04/19 08:03:23;;;;;;;10.30;9.00;;;13.40;77.60;;;;;;5008717;28;20435;-72
2022/04/19 08:05:50;;;;;;;9.80;8.90;;;13.40;75.50;;;;;;5002671;28;20569;-71
2022/04/19 08:08:18;;;;;;;8.70;7.70;;;13.60;74.40;;;;;;5011202;28;20194;-71
2022/04/19 08:10:44;;;;;;;8.30;7.60;;;13.80;77.10;;;;;;5007049;28;20796;-71
2022/04/19 08:13:10;;;;;;;9.87;8.40;;;14.00;74.60;;;;;;5006957;28;20425;-72
2022/04/19 08:15:36;;;;;;;11.67;10.67;;;14.10;73.00;;;;;;5007900;28;20758;-71
2022/04/19 08:18:01;;;;;;;10.17;9.17;;;14.30;72.00;;;;;;5008314;28;20222;-71
2022/04/19 08:20:27;;;;;;;9.40;8.53;;;14.50;72.30;;;;;;5008815;28;20232;-72
2022/04/19 08:22:53;;;;;;;11.20;9.63;;;14.70;72.90;;;;;;5011053;28;20176;-72
2022/04/19 08:25:19;;;;;;;9.80;8.87;;;14.90;70.50;;;;;;5010439;28;20264;-73
2022/04/19 08:27:48;;;;;;;9.30;8.50;;;15.00;69.50;;;;;;4993369;28;20215;-72
2022/04/19 08:30:18;;;;;;;9.43;8.53;;;15.20;70.60;;;;;;5011898;28;20458;-72
2022/04/19 08:32:44;;;;;;;9.20;8.30;;;15.40;71.10;;;;;;5009067;28;20435;-72
2022/04/19 08:35:10;;;;;;;11.50;10.50;;;15.60;71.30;;;;;;5012956;28;20436;-72
2022/04/19 08:37:36;;;;;;;10.20;9.20;;;15.80;69.50;;;;;;5011653;28;20436;-72
2022/04/19 08:40:04;;;;;;;9.47;8.60;;;15.90;69.70;;;;;;5012945;28;20260;-71
2022/04/19 08:42:30;;;;;;;11.07;10.07;;;16.10;68.40;;;;;;4998416;28;20428;-72
2022/04/19 08:45:00;;;;;;;8.67;7.77;;;16.30;69.50;;;;;;5008046;28;20953;-72
2022/04/19 08:47:27;;;;;;;9.20;8.30;;;16.50;68.60;;;;;;5001471;28;20265;-71
2022/04/19 08:49:54;;;;;;;9.27;8.03;;;16.70;68.70;;;;;;5015448;28;20972;-72
2022/04/19 08:52:20;;;;;;;9.50;8.67;;;16.80;65.10;;;;;;5011806;28;20521;-72
2022/04/19 08:57:32;;;;;;;8.80;8.10;;;16.90;63.80;;;;;;5004461;28;20596;-72
2022/04/19 08:59:59;;;;;;;8.37;7.67;;;17.00;63.40;;;;;;5011561;28;20448;-72
2022/04/19 09:02:27;;;;;;;8.57;7.77;;;17.00;62.70;;;;;;5008750;28;20472;-71
2022/04/19 09:04:53;;;;;;;8.83;8.23;;;17.00;65.10;;;;;;4998597;28;20462;-71
2022/04/19 09:07:20;;;;;;;8.30;7.60;;;16.90;63.70;;;;;;5009991;28;20477;-71
2022/04/19 09:10:00;;;;;;;6.93;6.43;;;16.80;63.20;;;;;;5007331;28;20609;-73
2022/04/19 09:12:26;;;;;;;7.90;7.10;;;16.90;63.80;;;;;;5009060;28;20457;-72
2022/04/19 09:15:08;;;;;;;7.97;7.30;;;16.80;63.30;;;;;;5006941;28;20437;-73
2022/04/19 09:17:38;;;;;;;6.73;6.23;;;17.00;66.30;;;;;;5007816;28;20442;-71
2022/04/19 09:20:18;;;;;;;8.03;7.30;;;17.30;64.70;;;;;;5009607;28;20512;-71
2022/04/19 09:22:48;;;;;;;8.53;7.83;;;17.20;62.40;;;;;;5010161;28;20422;-71
2022/04/19 09:25:19;;;;;;;7.23;6.70;;;17.40;63.50;;;;;;5012268;28;20422;-71
2022/04/19 09:27:47;;;;;;;7.40;6.80;;;17.70;61.40;;;;;;5010444;28;20430;-71
2022/04/19 09:30:25;;;;;;;9.07;8.37;;;18.00;64.40;;;;;;5008820;28;20442;-71
2022/04/19 09:33:08;;;;;;;7.57;6.60;;;18.30;62.80;;;;;;5008911;28;20519;-71
2022/04/19 09:35:45;;;;;;;7.90;6.90;;;18.40;59.70;;;;;;5027349;28;20469;-72
2022/04/19 09:38:12;;;;;;;9.33;8.53;;;18.50;60.30;;;;;;5011139;28;20441;-71
2022/04/19 09:40:42;;;;;;;7.20;6.60;;;18.70;59.10;;;;;;5011328;28;20425;-72
2022/04/19 09:43:16;;;;;;;7.87;7.27;;;18.80;57.90;;;;;;5012185;28;20425;-72
2022/04/19 09:45:58;;;;;;;8.00;7.40;;;19.00;60.90;;;;;;4986595;28;20466;-72
2022/04/19 09:48:29;;;;;;;7.97;7.33;;;19.20;58.60;;;;;;5003249;28;20950;-71
2022/04/19 09:50:59;;;;;;;8.00;7.37;;;19.50;58.50;;;;;;4994732;28;20449;-72
2022/04/19 09:53:27;;;;;;;7.17;6.23;;;19.70;58.30;;;;;;5011413;28;20911;-71
2022/04/19 09:55:55;;;;;;;6.80;6.30;;;19.60;56.20;;;;;;5011484;28;20501;-71
2022/04/19 09:58:22;;;;;;;7.87;7.17;;;19.60;57.60;;;;;;5012075;28;20500;-71
2022/04/19 10:00:48;;;;;;;8.00;7.30;;;19.80;58.20;;;;;;5011470;28;20426;-71
2022/04/19 10:08:46;;;;;;;7.30;6.70;;;20.30;57.10;;;;;;5008605;28;20445;-71
2022/04/19 10:11:13;;;;;;;7.77;7.07;;;20.50;55.40;;;;;;5012088;28;20410;-71
2022/04/19 10:13:39;;;;;;;7.43;6.73;;;20.50;56.70;;;;;;5011324;28;20422;-71
2022/04/19 10:16:14;;;;;;;8.17;6.20;;;20.60;57.60;;;;;;5012116;28;20428;-71
2022/04/19 10:18:40;;;;;;;8.60;7.97;;;20.60;55.30;;;;;;5009867;28;20495;-71
2022/04/19 10:21:09;;;;;;;7.10;6.50;;;20.70;54.30;;;;;;5012058;28;20420;-71
2022/04/19 10:23:40;;;;;;;9.80;6.50;;;20.70;53.90;;;;;;5011197;28;20890;-72
2022/04/19 10:26:19;;;;;;;8.03;7.23;;;20.80;56.00;;;;;;5012353;28;20469;-71
2022/04/19 10:28:47;;;;;;;7.80;7.20;;;20.90;55.50;;;;;;5014468;28;20418;-71
2022/04/19 10:31:23;;;;;;;6.60;6.00;;;21.00;54.90;;;;;;5013103;28;20418;-71
2022/04/19 10:33:51;;;;;;;7.40;6.80;;;21.10;54.80;;;;;;5007388;28;21007;-71
2022/04/19 10:36:34;;;;;;;6.50;5.87;;;21.20;53.10;;;;;;5015673;28;20501;-71
2022/04/19 10:39:11;;;;;;;7.70;6.17;;;21.30;55.10;;;;;;5015566;28;20917;-71
2022/04/19 10:41:53;;;;;;;7.17;6.57;;;21.40;52.80;;;;;;5014931;28;20426;-72
2022/04/19 10:44:34;;;;;;;7.53;6.93;;;21.40;52.30;;;;;;5015615;28;20398;-71
2022/04/19 10:47:11;;;;;;;8.07;7.37;;;21.60;53.40;;;;;;5015174;28;20457;-72
2022/04/19 10:49:47;;;;;;;8.03;7.33;;;21.70;52.60;;;;;;5013443;28;20484;-71
2022/04/19 10:52:39;;;;;;;7.13;6.47;;;21.60;52.70;;;;;;4994519;28;20441;-71
2022/04/19 10:55:07;;;;;;;6.00;5.50;;;21.60;51.90;;;;;;5009128;28;20464;-71
2022/04/19 11:00:34;;;;;;;6.20;5.60;;;21.40;50.90;;;;;;5014972;28;20403;-72
2022/04/19 11:03:11;;;;;;;6.50;5.80;;;21.30;51.80;;;;;;5015104;28;20422;-71
2022/04/19 11:05:57;;;;;;;6.37;5.70;;;21.20;51.60;;;;;;5014371;28;20412;-71
2022/04/19 11:08:26;;;;;;;6.40;5.80;;;21.20;51.00;;;;;;4995598;28;20426;-71
2022/04/19 11:10:55;;;;;;;7.37;6.67;;;21.20;52.90;;;;;;5004764;28;20465;-71
2022/04/19 11:13:22;;;;;;;6.37;5.87;;;21.30;52.10;;;;;;5014481;28;20424;-72
2022/04/19 11:16:05;;;;;;;7.70;7.00;;;21.50;53.00;;;;;;5014098;28;20406;-72
2022/04/19 11:18:32;;;;;;;7.90;7.30;;;21.50;51.80;;;;;;4995492;28;20477;-73
2022/04/19 11:21:03;;;;;;;9.50;8.90;;;21.60;53.20;;;;;;4994823;28;20438;-71
2022/04/19 11:23:40;;;;;;;6.50;5.90;;;21.70;51.80;;;;;;4995296;28;20395;-71
2022/04/19 11:26:08;;;;;;;8.80;7.90;;;21.60;50.40;;;;;;4996477;28;20480;-72
2022/04/19 11:28:34;;;;;;;7.90;7.20;;;21.60;50.40;;;;;;5029102;28;20422;-73
2022/04/19 11:31:00;;;;;;;7.13;6.53;;;21.60;51.30;;;;;;5013609;28;20448;-72
2022/04/19 11:33:34;;;;;;;7.30;6.67;;;21.60;50.50;;;;;;5014554;28;20418;-72
2022/04/19 11:36:01;;;;;;;9.13;8.33;;;21.70;52.80;;;;;;5013781;28;20257;-72
2022/04/19 11:38:31;;;;;;;7.63;7.03;;;21.80;52.30;;;;;;5013718;28;20433;-71
2022/04/19 11:46:51;;;;;;;9.83;8.97;;;21.90;52.50;;;;;;5013262;28;20450;-72
2022/04/19 11:49:20;;;;;;;7.57;6.87;;;21.90;50.60;;;;;;5014188;28;20499;-72
2022/04/19 11:51:47;;;;;;;9.33;7.47;;;22.00;51.60;;;;;;5013786;28;20453;-72
2022/04/19 11:54:26;;;;;;;7.43;6.83;;;22.10;50.70;;;;;;5029397;28;20429;-71
2022/04/19 11:56:53;;;;;;;8.37;7.60;;;22.30;52.80;;;;;;5011897;28;20433;-72
2022/04/19 11:59:31;;;;;;;8.40;7.70;;;22.40;51.10;;;;;;5012627;28;20414;-71
2022/04/19 12:01:57;;;;;;;8.20;7.60;;;22.40;50.80;;;;;;5011943;28;20471;-71
2022/04/19 12:04:23;;;;;;;7.17;6.57;;;22.30;49.10;;;;;;5014070;28;20418;-71
2022/04/19 12:06:52;;;;;;;7.60;7.00;;;22.20;48.60;;;;;;5010385;28;21004;-72
2022/04/19 12:09:19;;;;;;;8.10;7.50;;;22.20;49.40;;;;;;5014024;28;20423;-72
2022/04/19 12:11:48;;;;;;;8.17;7.47;;;22.30;51.00;;;;;;5012562;28;20426;-72
2022/04/19 12:14:27;;;;;;;7.40;6.90;;;22.20;49.30;;;;;;5013766;28;20449;-71
2022/04/19 12:17:07;;;;;;;6.13;5.73;;;21.80;49.90;;;;;;5012565;28;20421;-71
2022/04/19 12:19:41;;;;;;;5.90;5.50;;;21.90;50.50;;;;;;5012438;28;20441;-71
2022/04/19 12:22:18;;;;;;;6.07;5.67;;;22.10;51.50;;;;;;5012274;28;20556;-71
2022/04/19 12:24:45;;;;;;;6.60;6.10;;;22.20;51.20;;;;;;5013020;28;20794;-72
2022/04/19 12:27:11;;;;;;;6.10;5.57;;;22.20;51.30;;;;;;5011929;28;20465;-71
2022/04/19 12:29:53;;;;;;;6.57;6.07;;;22.30;52.20;;;;;;5013201;28;20516;-72
2022/04/19 12:32:19;;;;;;;6.10;5.70;;;22.20;49.80;;;;;;5012259;28;20183;-71
2022/04/19 12:34:45;;;;;;;5.60;5.20;;;22.00;49.70;;;;;;5011308;28;20493;-72
2022/04/19 12:37:13;;;;;;;5.40;5.10;;;21.80;50.70;;;;;;5013172;28;20936;-72
2022/04/19 12:39:40;;;;;;;5.40;5.03;;;21.70;51.40;;;;;;5012901;28;20171;-73
2022/04/19 12:42:11;;;;;;;5.90;5.60;;;21.60;49.30;;;;;;5013704;28;20414;-71
2022/04/19 12:44:39;;;;;;;5.40;5.10;;;21.60;50.80;;;;;;5007001;28;20783;-76
2022/04/19 12:47:14;;;;;;;6.50;6.00;;;21.40;49.10;;;;;;5001210;28;20458;-71
2022/04/19 12:49:45;;;;;;;6.60;5.20;;;21.20;50.80;;;;;;5010061;28;20811;-72
2022/04/19 12:52:12;;;;;;;6.53;6.03;;;21.00;50.70;;;;;;5013189;28;20469;-73
2022/04/19 12:54:40;;;;;;;5.60;5.17;;;20.80;51.70;;;;;;5012794;28;20917;-72
2022/04/19 12:57:13;;;;;;;5.23;4.83;;;20.80;52.70;;;;;;5012506;28;20450;-71
2022/04/19 12:59:40;;;;;;;8.17;7.50;;;21.00;54.80;;;;;;5011663;28;20841;-73
2022/04/19 13:02:06;;;;;;;5.13;4.67;;;21.10;53.50;;;;;;5012368;28;20425;-72
2022/04/19 13:04:32;;;;;;;5.17;4.77;;;21.00;51.00;;;;;;5012695;28;20402;-72
2022/04/19 13:12:27;;;;;;;4.60;4.30;;;21.00;51.20;;;;;;5012350;28;20410;-72
2022/04/19 13:14:55;;;;;;;4.97;4.57;;;21.00;52.60;;;;;;5011723;28;20414;-71
2022/04/19 13:17:22;;;;;;;5.30;4.90;;;20.90;50.50;;;;;;5009566;28;20441;-72
2022/04/19 13:19:48;;;;;;;5.10;4.80;;;20.60;53.10;;;;;;5009631;28;20426;-72
2022/04/19 13:22:14;;;;;;;5.90;5.50;;;20.70;53.10;;;;;;5010839;28;20441;-71
2022/04/19 13:24:41;;;;;;;5.67;5.27;;;20.80;53.60;;;;;;5012135;28;20207;-73
2022/04/19 13:27:09;;;;;;;6.30;5.80;;;20.80;51.30;;;;;;5011301;28;20493;-73
2022/04/19 13:29:35;;;;;;;5.53;5.13;;;20.60;51.20;;;;;;5012125;28;20430;-73
2022/04/19 13:32:01;;;;;;;5.67;5.30;;;20.60;52.60;;;;;;5011834;28;20504;-73
2022/04/19 13:34:30;;;;;;;5.50;5.10;;;20.70;51.50;;;;;;5012706;28;20768;-73
2022/04/19 13:36:57;;;;;;;5.70;5.30;;;20.70;52.70;;;;;;5007024;28;20453;-73
2022/04/19 13:39:24;;;;;;;10.50;9.60;;;20.60;54.00;;;;;;5011710;28;20436;-73